Archival Weather

Chicago O'Hare International

Chicago, Illinois (KORD)

Report from: Wednesday, March 27, 2024 2:59 AM CDT
Current time: Tuesday, May 21, 2024 11:41 AM CDT

Current weather – Weather history – Daily summaries
Weather forecast

Temperature-0.6°C (30.9°F)
Wind chill-6.0°C (21.1°F)
Dew point-6.1°C (21.0°F)
Winds 11 kts (5.7 m/s, 12.7 mph) West-Southwest (250°)
Wind gusts 25 kts (12.9 m/s, 28.8 mph)
Visibility10 mi. (16.1 km)
Clouds Ceiling: Overcast 2,600 ft. (792 m)
Altimeter29.86 in.Hg (1011 mB)
Relative humidity66 %
Density altitude-1,775 ft. (-541 m)
Remarks System requires maintenance
Automated weather observing station with precipitation discriminator
Flight conditions Marginal Visual Meteorological Conditions
Raw dataKORD 270759Z 25011G25KT 10SM OVC026 M01/M06 A2986 RMK AO2 T10061061 $
An error has occurred. This application may no longer respond until reloaded. Reload 🗙